sensor_id;sensor_type;location;lat;lon;timestamp;P1;durP1;ratioP1;P2;durP2;ratioP2
25938;SDS011;13739;51.172;4.466;2022-08-03T00:01:56;9.13;;;2.72;;
25938;SDS011;13739;51.172;4.466;2022-08-03T00:04:23;9.70;;;2.50;;
25938;SDS011;13739;51.172;4.466;2022-08-03T00:06:48;8.35;;;2.45;;
25938;SDS011;13739;51.172;4.466;2022-08-03T00:09:14;7.10;;;2.40;;
25938;SDS011;13739;51.172;4.466;2022-08-03T00:11:39;9.45;;;2.38;;
25938;SDS011;13739;51.172;4.466;2022-08-03T00:14:05;6.28;;;2.40;;
25938;SDS011;13739;51.172;4.466;2022-08-03T00:16:31;6.25;;;2.40;;
25938;SDS011;13739;51.172;4.466;2022-08-03T00:18:57;5.43;;;2.42;;
25938;SDS011;13739;51.172;4.466;2022-08-03T00:21:23;7.93;;;2.15;;
25938;SDS011;13739;51.172;4.466;2022-08-03T00:23:49;8.07;;;2.33;;
25938;SDS011;13739;51.172;4.466;2022-08-03T00:26:14;6.05;;;2.10;;
25938;SDS011;13739;51.172;4.466;2022-08-03T00:28:40;9.38;;;2.22;;
25938;SDS011;13739;51.172;4.466;2022-08-03T00:31:06;8.48;;;2.35;;
25938;SDS011;13739;51.172;4.466;2022-08-03T00:33:32;5.32;;;1.92;;
25938;SDS011;13739;51.172;4.466;2022-08-03T00:35:58;4.80;;;1.80;;
25938;SDS011;13739;51.172;4.466;2022-08-03T00:38:23;3.35;;;1.80;;
25938;SDS011;13739;51.172;4.466;2022-08-03T00:40:49;2.60;;;1.55;;
25938;SDS011;13739;51.172;4.466;2022-08-03T00:43:15;8.40;;;2.70;;
25938;SDS011;13739;51.172;4.466;2022-08-03T00:45:40;8.77;;;2.40;;
25938;SDS011;13739;51.172;4.466;2022-08-03T00:48:07;6.55;;;2.47;;
25938;SDS011;13739;51.172;4.466;2022-08-03T00:50:41;8.77;;;2.30;;
25938;SDS011;13739;51.172;4.466;2022-08-03T00:53:08;4.07;;;1.90;;
25938;SDS011;13739;51.172;4.466;2022-08-03T00:55:36;3.85;;;1.80;;
25938;SDS011;13739;51.172;4.466;2022-08-03T00:58:02;7.22;;;2.20;;
25938;SDS011;13739;51.172;4.466;2022-08-03T01:00:31;6.25;;;2.17;;
25938;SDS011;13739;51.172;4.466;2022-08-03T01:03:00;7.30;;;2.25;;
25938;SDS011;13739;51.172;4.466;2022-08-03T01:05:26;5.82;;;1.80;;
25938;SDS011;13739;51.172;4.466;2022-08-03T01:13:38;6.90;;;1.63;;
25938;SDS011;13739;51.172;4.466;2022-08-03T01:16:17;5.20;;;2.00;;
25938;SDS011;13739;51.172;4.466;2022-08-03T01:19:16;4.00;;;1.75;;
25938;SDS011;13739;51.172;4.466;2022-08-03T01:22:12;5.90;;;1.73;;
25938;SDS011;13739;51.172;4.466;2022-08-03T01:27:28;4.90;;;1.75;;
25938;SDS011;13739;51.172;4.466;2022-08-03T01:30:07;5.18;;;2.25;;
25938;SDS011;13739;51.172;4.466;2022-08-03T01:35:21;3.97;;;1.58;;
25938;SDS011;13739;51.172;4.466;2022-08-03T01:37:57;4.50;;;1.58;;
25938;SDS011;13739;51.172;4.466;2022-08-03T01:40:26;6.85;;;1.65;;
25938;SDS011;13739;51.172;4.466;2022-08-03T01:42:54;2.90;;;1.38;;
25938;SDS011;13739;51.172;4.466;2022-08-03T01:45:23;3.45;;;1.50;;
25938;SDS011;13739;51.172;4.466;2022-08-03T01:47:50;3.85;;;1.30;;
25938;SDS011;13739;51.172;4.466;2022-08-03T01:50:21;5.13;;;1.58;;
25938;SDS011;13739;51.172;4.466;2022-08-03T01:52:51;6.45;;;1.60;;
25938;SDS011;13739;51.172;4.466;2022-08-03T01:55:19;4.25;;;1.70;;
25938;SDS011;13739;51.172;4.466;2022-08-03T01:57:46;3.75;;;1.50;;
25938;SDS011;13739;51.172;4.466;2022-08-03T02:00:13;3.15;;;1.40;;
25938;SDS011;13739;51.172;4.466;2022-08-03T02:02:39;3.33;;;1.20;;
25938;SDS011;13739;51.172;4.466;2022-08-03T02:05:08;6.50;;;1.67;;
25938;SDS011;13739;51.172;4.466;2022-08-03T02:07:35;2.50;;;1.30;;
25938;SDS011;13739;51.172;4.466;2022-08-03T02:10:04;3.70;;;1.30;;
25938;SDS011;13739;51.172;4.466;2022-08-03T02:12:31;5.63;;;1.30;;
25938;SDS011;13739;51.172;4.466;2022-08-03T02:14:58;3.20;;;1.00;;
25938;SDS011;13739;51.172;4.466;2022-08-03T02:17:26;4.13;;;1.17;;
25938;SDS011;13739;51.172;4.466;2022-08-03T02:19:54;3.30;;;1.42;;
25938;SDS011;13739;51.172;4.466;2022-08-03T02:22:21;2.55;;;1.38;;
25938;SDS011;13739;51.172;4.466;2022-08-03T02:24:49;4.28;;;1.27;;
25938;SDS011;13739;51.172;4.466;2022-08-03T02:27:19;4.45;;;1.20;;
25938;SDS011;13739;51.172;4.466;2022-08-03T02:29:48;2.97;;;1.13;;
25938;SDS011;13739;51.172;4.466;2022-08-03T02:32:28;3.90;;;1.30;;
25938;SDS011;13739;51.172;4.466;2022-08-03T02:34:57;3.40;;;1.33;;
25938;SDS011;13739;51.172;4.466;2022-08-03T02:37:25;3.50;;;1.30;;
25938;SDS011;13739;51.172;4.466;2022-08-03T02:39:54;2.53;;;1.13;;
25938;SDS011;13739;51.172;4.466;2022-08-03T02:42:25;4.32;;;1.35;;
25938;SDS011;13739;51.172;4.466;2022-08-03T02:44:53;7.25;;;1.50;;
25938;SDS011;13739;51.172;4.466;2022-08-03T02:47:21;3.40;;;1.08;;
25938;SDS011;13739;51.172;4.466;2022-08-03T02:49:48;5.97;;;1.30;;
25938;SDS011;13739;51.172;4.466;2022-08-03T02:52:14;3.10;;;1.20;;
25938;SDS011;13739;51.172;4.466;2022-08-03T02:54:42;5.80;;;1.67;;
25938;SDS011;13739;51.172;4.466;2022-08-03T02:57:10;3.17;;;1.50;;
25938;SDS011;13739;51.172;4.466;2022-08-03T02:59:38;5.13;;;1.50;;
25938;SDS011;13739;51.172;4.466;2022-08-03T03:02:04;5.00;;;1.40;;
25938;SDS011;13739;51.172;4.466;2022-08-03T03:04:31;7.07;;;1.45;;
25938;SDS011;13739;51.172;4.466;2022-08-03T03:06:57;4.35;;;0.85;;
25938;SDS011;13739;51.172;4.466;2022-08-03T03:09:23;4.45;;;1.13;;
25938;SDS011;13739;51.172;4.466;2022-08-03T03:11:50;2.42;;;1.05;;
25938;SDS011;13739;51.172;4.466;2022-08-03T03:14:17;5.00;;;1.30;;
25938;SDS011;13739;51.172;4.466;2022-08-03T03:16:44;5.55;;;1.38;;
25938;SDS011;13739;51.172;4.466;2022-08-03T03:19:12;5.57;;;1.08;;
25938;SDS011;13739;51.172;4.466;2022-08-03T03:21:39;3.17;;;1.20;;
25938;SDS011;13739;51.172;4.466;2022-08-03T03:24:07;4.55;;;1.10;;
25938;SDS011;13739;51.172;4.466;2022-08-03T03:26:34;3.47;;;1.10;;
25938;SDS011;13739;51.172;4.466;2022-08-03T03:29:00;3.05;;;1.10;;
25938;SDS011;13739;51.172;4.466;2022-08-03T03:31:27;5.40;;;1.60;;
25938;SDS011;13739;51.172;4.466;2022-08-03T03:33:54;6.20;;;1.25;;
25938;SDS011;13739;51.172;4.466;2022-08-03T03:36:22;2.40;;;1.38;;
25938;SDS011;13739;51.172;4.466;2022-08-03T03:38:47;6.00;;;1.38;;
25938;SDS011;13739;51.172;4.466;2022-08-03T03:41:13;3.58;;;1.23;;
25938;SDS011;13739;51.172;4.466;2022-08-03T03:43:39;6.25;;;1.30;;
25938;SDS011;13739;51.172;4.466;2022-08-03T03:46:05;7.57;;;1.50;;
25938;SDS011;13739;51.172;4.466;2022-08-03T03:48:31;2.85;;;0.90;;
25938;SDS011;13739;51.172;4.466;2022-08-03T03:50:57;4.78;;;1.30;;
25938;SDS011;13739;51.172;4.466;2022-08-03T03:53:24;4.93;;;1.80;;
25938;SDS011;13739;51.172;4.466;2022-08-03T03:55:53;4.47;;;1.52;;
25938;SDS011;13739;51.172;4.466;2022-08-03T03:58:19;6.88;;;1.48;;
25938;SDS011;13739;51.172;4.466;2022-08-03T04:00:45;7.35;;;1.67;;
25938;SDS011;13739;51.172;4.466;2022-08-03T04:03:10;7.15;;;1.40;;
25938;SDS011;13739;51.172;4.466;2022-08-03T04:05:36;6.20;;;1.25;;
25938;SDS011;13739;51.172;4.466;2022-08-03T04:08:21;7.10;;;1.40;;
25938;SDS011;13739;51.172;4.466;2022-08-03T04:13:52;3.22;;;1.00;;
25938;SDS011;13739;51.172;4.466;2022-08-03T04:16:39;8.90;;;1.88;;
25938;SDS011;13739;51.172;4.466;2022-08-03T04:19:31;4.55;;;1.33;;
25938;SDS011;13739;51.172;4.466;2022-08-03T04:21:59;5.75;;;1.75;;
25938;SDS011;13739;51.172;4.466;2022-08-03T04:24:29;3.85;;;1.35;;
25938;SDS011;13739;51.172;4.466;2022-08-03T04:26:59;5.20;;;1.08;;
25938;SDS011;13739;51.172;4.466;2022-08-03T04:29:28;5.32;;;1.50;;
25938;SDS011;13739;51.172;4.466;2022-08-03T04:31:57;7.30;;;1.38;;
25938;SDS011;13739;51.172;4.466;2022-08-03T04:34:24;5.85;;;1.83;;
25938;SDS011;13739;51.172;4.466;2022-08-03T04:36:51;4.70;;;1.13;;
25938;SDS011;13739;51.172;4.466;2022-08-03T04:39:24;4.93;;;1.35;;
25938;SDS011;13739;51.172;4.466;2022-08-03T04:41:56;5.25;;;1.33;;
25938;SDS011;13739;51.172;4.466;2022-08-03T04:44:25;3.45;;;1.48;;
25938;SDS011;13739;51.172;4.466;2022-08-03T04:46:52;5.20;;;1.48;;
25938;SDS011;13739;51.172;4.466;2022-08-03T04:49:20;5.50;;;1.48;;
25938;SDS011;13739;51.172;4.466;2022-08-03T04:51:47;7.45;;;1.30;;
25938;SDS011;13739;51.172;4.466;2022-08-03T04:54:17;5.85;;;1.30;;
25938;SDS011;13739;51.172;4.466;2022-08-03T04:56:42;5.32;;;1.30;;
25938;SDS011;13739;51.172;4.466;2022-08-03T04:59:08;4.40;;;1.63;;
25938;SDS011;13739;51.172;4.466;2022-08-03T05:01:35;7.85;;;1.73;;
25938;SDS011;13739;51.172;4.466;2022-08-03T05:04:01;7.03;;;1.42;;
25938;SDS011;13739;51.172;4.466;2022-08-03T05:06:26;2.45;;;1.20;;
25938;SDS011;13739;51.172;4.466;2022-08-03T05:08:52;5.40;;;1.40;;
25938;SDS011;13739;51.172;4.466;2022-08-03T05:11:19;6.57;;;1.65;;
25938;SDS011;13739;51.172;4.466;2022-08-03T05:13:45;5.88;;;1.20;;
25938;SDS011;13739;51.172;4.466;2022-08-03T05:16:11;6.00;;;1.38;;
25938;SDS011;13739;51.172;4.466;2022-08-03T05:18:38;2.28;;;1.05;;
25938;SDS011;13739;51.172;4.466;2022-08-03T05:21:04;8.85;;;2.22;;
25938;SDS011;13739;51.172;4.466;2022-08-03T05:23:30;7.25;;;1.30;;
25938;SDS011;13739;51.172;4.466;2022-08-03T05:25:56;7.35;;;1.30;;
25938;SDS011;13739;51.172;4.466;2022-08-03T05:28:21;4.45;;;1.00;;
25938;SDS011;13739;51.172;4.466;2022-08-03T05:30:47;4.93;;;1.20;;
25938;SDS011;13739;51.172;4.466;2022-08-03T05:33:13;5.10;;;1.55;;
25938;SDS011;13739;51.172;4.466;2022-08-03T05:35:39;5.72;;;1.52;;
25938;SDS011;13739;51.172;4.466;2022-08-03T05:38:04;8.80;;;1.40;;
25938;SDS011;13739;51.172;4.466;2022-08-03T05:40:30;4.10;;;1.42;;
25938;SDS011;13739;51.172;4.466;2022-08-03T05:42:56;9.05;;;1.95;;
25938;SDS011;13739;51.172;4.466;2022-08-03T05:45:22;3.80;;;1.23;;
25938;SDS011;13739;51.172;4.466;2022-08-03T05:47:49;6.30;;;1.35;;
25938;SDS011;13739;51.172;4.466;2022-08-03T05:50:17;7.70;;;1.40;;
25938;SDS011;13739;51.172;4.466;2022-08-03T05:52:43;8.88;;;1.33;;
25938;SDS011;13739;51.172;4.466;2022-08-03T05:55:09;4.28;;;1.40;;
25938;SDS011;13739;51.172;4.466;2022-08-03T05:57:35;3.25;;;1.17;;
25938;SDS011;13739;51.172;4.466;2022-08-03T06:00:06;8.15;;;1.50;;
25938;SDS011;13739;51.172;4.466;2022-08-03T06:02:34;5.70;;;1.67;;
25938;SDS011;13739;51.172;4.466;2022-08-03T06:05:00;8.00;;;2.30;;
25938;SDS011;13739;51.172;4.466;2022-08-03T06:07:25;5.72;;;1.80;;
25938;SDS011;13739;51.172;4.466;2022-08-03T06:09:52;6.20;;;1.00;;
25938;SDS011;13739;51.172;4.466;2022-08-03T06:12:17;3.25;;;1.52;;
25938;SDS011;13739;51.172;4.466;2022-08-03T06:14:43;3.13;;;1.10;;
25938;SDS011;13739;51.172;4.466;2022-08-03T06:17:09;3.55;;;0.90;;
25938;SDS011;13739;51.172;4.466;2022-08-03T06:19:35;4.38;;;1.02;;
25938;SDS011;13739;51.172;4.466;2022-08-03T06:22:00;2.97;;;1.30;;
25938;SDS011;13739;51.172;4.466;2022-08-03T06:24:26;7.93;;;1.75;;
25938;SDS011;13739;51.172;4.466;2022-08-03T06:26:52;3.70;;;1.70;;
25938;SDS011;13739;51.172;4.466;2022-08-03T06:29:17;6.88;;;1.30;;
25938;SDS011;13739;51.172;4.466;2022-08-03T06:31:43;5.78;;;1.30;;
25938;SDS011;13739;51.172;4.466;2022-08-03T06:34:08;4.10;;;1.27;;
25938;SDS011;13739;51.172;4.466;2022-08-03T06:36:34;5.20;;;1.20;;
25938;SDS011;13739;51.172;4.466;2022-08-03T06:39:00;4.78;;;1.60;;
25938;SDS011;13739;51.172;4.466;2022-08-03T06:41:26;7.63;;;1.00;;
25938;SDS011;13739;51.172;4.466;2022-08-03T06:43:52;10.13;;;1.45;;
25938;SDS011;13739;51.172;4.466;2022-08-03T06:46:18;6.88;;;1.42;;
25938;SDS011;13739;51.172;4.466;2022-08-03T06:48:44;3.63;;;1.00;;
25938;SDS011;13739;51.172;4.466;2022-08-03T06:51:10;5.43;;;1.45;;
25938;SDS011;13739;51.172;4.466;2022-08-03T06:53:36;8.48;;;1.40;;
25938;SDS011;13739;51.172;4.466;2022-08-03T06:56:03;5.88;;;1.35;;
25938;SDS011;13739;51.172;4.466;2022-08-03T06:58:29;4.05;;;1.27;;
25938;SDS011;13739;51.172;4.466;2022-08-03T07:00:55;7.45;;;1.30;;
25938;SDS011;13739;51.172;4.466;2022-08-03T07:03:20;2.55;;;1.00;;
25938;SDS011;13739;51.172;4.466;2022-08-03T07:05:46;3.78;;;0.80;;
25938;SDS011;13739;51.172;4.466;2022-08-03T07:08:12;5.13;;;1.00;;
25938;SDS011;13739;51.172;4.466;2022-08-03T07:10:38;3.50;;;1.13;;
25938;SDS011;13739;51.172;4.466;2022-08-03T07:13:04;4.22;;;1.00;;
25938;SDS011;13739;51.172;4.466;2022-08-03T07:15:30;8.20;;;1.60;;
25938;SDS011;13739;51.172;4.466;2022-08-03T07:17:56;6.32;;;1.38;;
25938;SDS011;13739;51.172;4.466;2022-08-03T07:20:22;4.22;;;1.05;;
25938;SDS011;13739;51.172;4.466;2022-08-03T07:22:48;4.60;;;1.17;;
25938;SDS011;13739;51.172;4.466;2022-08-03T07:25:14;4.18;;;1.35;;
25938;SDS011;13739;51.172;4.466;2022-08-03T07:27:43;5.22;;;1.15;;
25938;SDS011;13739;51.172;4.466;2022-08-03T07:30:10;6.80;;;1.60;;
25938;SDS011;13739;51.172;4.466;2022-08-03T07:32:37;7.38;;;1.20;;
25938;SDS011;13739;51.172;4.466;2022-08-03T07:35:03;6.00;;;1.10;;
25938;SDS011;13739;51.172;4.466;2022-08-03T07:37:30;5.50;;;1.05;;
25938;SDS011;13739;51.172;4.466;2022-08-03T07:39:56;7.85;;;1.38;;
25938;SDS011;13739;51.172;4.466;2022-08-03T07:42:22;7.15;;;1.23;;
25938;SDS011;13739;51.172;4.466;2022-08-03T07:44:48;7.65;;;1.38;;
25938;SDS011;13739;51.172;4.466;2022-08-03T07:47:23;5.85;;;1.70;;
25938;SDS011;13739;51.172;4.466;2022-08-03T07:49:53;6.82;;;1.10;;
25938;SDS011;13739;51.172;4.466;2022-08-03T07:52:20;11.75;;;1.73;;
25938;SDS011;13739;51.172;4.466;2022-08-03T07:55:04;4.63;;;1.13;;
25938;SDS011;13739;51.172;4.466;2022-08-03T07:57:30;5.38;;;1.30;;
25938;SDS011;13739;51.172;4.466;2022-08-03T07:59:56;5.50;;;1.10;;
25938;SDS011;13739;51.172;4.466;2022-08-03T08:02:22;4.40;;;1.23;;
25938;SDS011;13739;51.172;4.466;2022-08-03T08:04:48;3.20;;;1.00;;
25938;SDS011;13739;51.172;4.466;2022-08-03T08:07:14;6.88;;;1.30;;
25938;SDS011;13739;51.172;4.466;2022-08-03T08:09:40;6.32;;;1.13;;
25938;SDS011;13739;51.172;4.466;2022-08-03T08:12:06;5.45;;;1.05;;
25938;SDS011;13739;51.172;4.466;2022-08-03T08:14:33;4.55;;;1.15;;
25938;SDS011;13739;51.172;4.466;2022-08-03T08:16:59;7.68;;;1.60;;
25938;SDS011;13739;51.172;4.466;2022-08-03T08:19:24;9.15;;;1.15;;
25938;SDS011;13739;51.172;4.466;2022-08-03T08:21:50;7.80;;;1.55;;
25938;SDS011;13739;51.172;4.466;2022-08-03T08:24:16;5.88;;;1.15;;
25938;SDS011;13739;51.172;4.466;2022-08-03T08:26:41;5.47;;;1.50;;
25938;SDS011;13739;51.172;4.466;2022-08-03T08:29:07;6.25;;;1.73;;
25938;SDS011;13739;51.172;4.466;2022-08-03T08:31:33;8.65;;;1.17;;
25938;SDS011;13739;51.172;4.466;2022-08-03T08:33:58;4.45;;;1.60;;
25938;SDS011;13739;51.172;4.466;2022-08-03T08:36:29;7.30;;;1.40;;
25938;SDS011;13739;51.172;4.466;2022-08-03T08:38:58;7.45;;;1.40;;
25938;SDS011;13739;51.172;4.466;2022-08-03T08:41:23;5.82;;;1.50;;
25938;SDS011;13739;51.172;4.466;2022-08-03T08:43:49;7.55;;;1.30;;
25938;SDS011;13739;51.172;4.466;2022-08-03T08:46:15;10.40;;;1.50;;
25938;SDS011;13739;51.172;4.466;2022-08-03T08:48:42;6.05;;;1.65;;
25938;SDS011;13739;51.172;4.466;2022-08-03T08:51:10;6.53;;;1.17;;
25938;SDS011;13739;51.172;4.466;2022-08-03T08:53:38;8.55;;;1.58;;
25938;SDS011;13739;51.172;4.466;2022-08-03T08:56:07;4.28;;;1.60;;
25938;SDS011;13739;51.172;4.466;2022-08-03T08:58:41;6.65;;;1.30;;
25938;SDS011;13739;51.172;4.466;2022-08-03T09:01:11;7.47;;;1.42;;
25938;SDS011;13739;51.172;4.466;2022-08-03T09:03:37;4.03;;;1.50;;
25938;SDS011;13739;51.172;4.466;2022-08-03T09:06:03;9.95;;;1.40;;
25938;SDS011;13739;51.172;4.466;2022-08-03T09:08:29;5.55;;;1.33;;
25938;SDS011;13739;51.172;4.466;2022-08-03T09:10:58;9.57;;;1.52;;
25938;SDS011;13739;51.172;4.466;2022-08-03T09:13:24;8.55;;;1.45;;
25938;SDS011;13739;51.172;4.466;2022-08-03T09:16:12;5.93;;;1.50;;
25938;SDS011;13739;51.172;4.466;2022-08-03T09:18:47;11.90;;;2.45;;
25938;SDS011;13739;51.172;4.466;2022-08-03T09:21:19;8.88;;;1.73;;
25938;SDS011;13739;51.172;4.466;2022-08-03T09:23:50;6.07;;;1.10;;
25938;SDS011;13739;51.172;4.466;2022-08-03T09:26:24;7.30;;;1.13;;
25938;SDS011;13739;51.172;4.466;2022-08-03T09:28:58;4.85;;;1.80;;
25938;SDS011;13739;51.172;4.466;2022-08-03T09:31:33;7.75;;;1.60;;
25938;SDS011;13739;51.172;4.466;2022-08-03T09:34:11;4.25;;;1.00;;
25938;SDS011;13739;51.172;4.466;2022-08-03T09:36:39;8.23;;;1.45;;
25938;SDS011;13739;51.172;4.466;2022-08-03T09:39:11;5.68;;;1.55;;
25938;SDS011;13739;51.172;4.466;2022-08-03T09:41:40;9.65;;;1.27;;
25938;SDS011;13739;51.172;4.466;2022-08-03T09:44:46;4.75;;;1.63;;
25938;SDS011;13739;51.172;4.466;2022-08-03T09:47:14;6.60;;;1.10;;
25938;SDS011;13739;51.172;4.466;2022-08-03T09:52:22;3.85;;;1.17;;
25938;SDS011;13739;51.172;4.466;2022-08-03T09:54:58;4.30;;;0.90;;
25938;SDS011;13739;51.172;4.466;2022-08-03T09:57:26;9.55;;;1.00;;
25938;SDS011;13739;51.172;4.466;2022-08-03T09:59:52;3.85;;;1.00;;
25938;SDS011;13739;51.172;4.466;2022-08-03T10:02:23;4.75;;;1.05;;
25938;SDS011;13739;51.172;4.466;2022-08-03T10:04:50;7.63;;;1.00;;
25938;SDS011;13739;51.172;4.466;2022-08-03T10:07:17;4.20;;;1.00;;
25938;SDS011;13739;51.172;4.466;2022-08-03T10:12:19;7.82;;;1.40;;
25938;SDS011;13739;51.172;4.466;2022-08-03T10:14:45;7.18;;;1.15;;
25938;SDS011;13739;51.172;4.466;2022-08-03T10:17:11;3.20;;;1.20;;
25938;SDS011;13739;51.172;4.466;2022-08-03T10:19:38;4.95;;;1.38;;
25938;SDS011;13739;51.172;4.466;2022-08-03T10:22:26;5.03;;;1.02;;
25938;SDS011;13739;51.172;4.466;2022-08-03T10:24:52;3.60;;;1.30;;
25938;SDS011;13739;51.172;4.466;2022-08-03T10:27:23;4.38;;;1.00;;
25938;SDS011;13739;51.172;4.466;2022-08-03T10:29:51;6.90;;;1.27;;
25938;SDS011;13739;51.172;4.466;2022-08-03T10:32:29;6.65;;;1.30;;
25938;SDS011;13739;51.172;4.466;2022-08-03T10:35:00;2.78;;;0.95;;
25938;SDS011;13739;51.172;4.466;2022-08-03T10:37:32;5.88;;;1.45;;
25938;SDS011;13739;51.172;4.466;2022-08-03T10:40:02;5.15;;;0.93;;
25938;SDS011;13739;51.172;4.466;2022-08-03T10:42:30;2.50;;;0.80;;
25938;SDS011;13739;51.172;4.466;2022-08-03T10:45:04;3.50;;;1.08;;
25938;SDS011;13739;51.172;4.466;2022-08-03T10:47:50;3.05;;;1.23;;
25938;SDS011;13739;51.172;4.466;2022-08-03T10:50:18;5.03;;;1.27;;
25938;SDS011;13739;51.172;4.466;2022-08-03T10:52:56;3.85;;;1.10;;
25938;SDS011;13739;51.172;4.466;2022-08-03T10:55:29;3.15;;;1.20;;
25938;SDS011;13739;51.172;4.466;2022-08-03T11:01:14;5.63;;;0.90;;
25938;SDS011;13739;51.172;4.466;2022-08-03T11:06:19;2.60;;;0.90;;
25938;SDS011;13739;51.172;4.466;2022-08-03T11:08:46;2.88;;;1.02;;
25938;SDS011;13739;51.172;4.466;2022-08-03T11:16:30;3.53;;;1.00;;
25938;SDS011;13739;51.172;4.466;2022-08-03T11:19:01;5.43;;;1.00;;
25938;SDS011;13739;51.172;4.466;2022-08-03T11:27:27;4.35;;;1.17;;
25938;SDS011;13739;51.172;4.466;2022-08-03T11:38:09;2.15;;;0.90;;
25938;SDS011;13739;51.172;4.466;2022-08-03T11:48:49;3.17;;;0.88;;
25938;SDS011;13739;51.172;4.466;2022-08-03T11:51:22;4.75;;;0.80;;
25938;SDS011;13739;51.172;4.466;2022-08-03T11:53:56;1.83;;;0.80;;
25938;SDS011;13739;51.172;4.466;2022-08-03T11:56:24;2.95;;;0.80;;
25938;SDS011;13739;51.172;4.466;2022-08-03T11:58:52;2.08;;;0.80;;
25938;SDS011;13739;51.172;4.466;2022-08-03T12:01:20;4.28;;;1.13;;
25938;SDS011;13739;51.172;4.466;2022-08-03T12:03:47;3.00;;;1.02;;
25938;SDS011;13739;51.172;4.466;2022-08-03T12:06:14;2.05;;;0.90;;
25938;SDS011;13739;51.172;4.466;2022-08-03T12:08:41;4.00;;;0.90;;
25938;SDS011;13739;51.172;4.466;2022-08-03T12:11:08;1.85;;;0.80;;
25938;SDS011;13739;51.172;4.466;2022-08-03T12:13:36;3.60;;;0.98;;
25938;SDS011;13739;51.172;4.466;2022-08-03T12:16:05;1.27;;;0.85;;
25938;SDS011;13739;51.172;4.466;2022-08-03T12:18:31;3.47;;;0.88;;
25938;SDS011;13739;51.172;4.466;2022-08-03T12:21:07;1.65;;;0.90;;
25938;SDS011;13739;51.172;4.466;2022-08-03T12:23:35;3.40;;;0.98;;
25938;SDS011;13739;51.172;4.466;2022-08-03T12:26:05;3.15;;;0.80;;
25938;SDS011;13739;51.172;4.466;2022-08-03T12:28:33;3.80;;;0.82;;
25938;SDS011;13739;51.172;4.466;2022-08-03T12:31:00;2.42;;;0.75;;
25938;SDS011;13739;51.172;4.466;2022-08-03T12:33:30;1.30;;;0.70;;
25938;SDS011;13739;51.172;4.466;2022-08-03T12:36:06;2.63;;;0.68;;
25938;SDS011;13739;51.172;4.466;2022-08-03T12:38:33;2.25;;;0.88;;
25938;SDS011;13739;51.172;4.466;2022-08-03T12:41:03;1.23;;;0.80;;
25938;SDS011;13739;51.172;4.466;2022-08-03T12:43:37;1.23;;;0.70;;
25938;SDS011;13739;51.172;4.466;2022-08-03T12:46:13;1.55;;;0.60;;
25938;SDS011;13739;51.172;4.466;2022-08-03T12:51:28;2.40;;;0.90;;
25938;SDS011;13739;51.172;4.466;2022-08-03T12:53:55;3.40;;;0.80;;
25938;SDS011;13739;51.172;4.466;2022-08-03T12:56:22;1.48;;;0.80;;
25938;SDS011;13739;51.172;4.466;2022-08-03T12:58:47;1.48;;;0.73;;
25938;SDS011;13739;51.172;4.466;2022-08-03T13:01:14;2.65;;;0.77;;
25938;SDS011;13739;51.172;4.466;2022-08-03T13:03:45;4.18;;;1.20;;
25938;SDS011;13739;51.172;4.466;2022-08-03T13:06:24;2.15;;;0.80;;
25938;SDS011;13739;51.172;4.466;2022-08-03T13:09:06;3.63;;;0.82;;
25938;SDS011;13739;51.172;4.466;2022-08-03T13:11:32;5.05;;;1.08;;
25938;SDS011;13739;51.172;4.466;2022-08-03T13:13:58;2.75;;;0.90;;
25938;SDS011;13739;51.172;4.466;2022-08-03T13:16:24;1.75;;;1.00;;
25938;SDS011;13739;51.172;4.466;2022-08-03T13:18:50;1.02;;;0.70;;
25938;SDS011;13739;51.172;4.466;2022-08-03T13:21:18;5.70;;;1.00;;
25938;SDS011;13739;51.172;4.466;2022-08-03T13:23:45;3.63;;;0.70;;
25938;SDS011;13739;51.172;4.466;2022-08-03T13:26:11;3.08;;;0.80;;
25938;SDS011;13739;51.172;4.466;2022-08-03T13:28:38;3.10;;;0.77;;
25938;SDS011;13739;51.172;4.466;2022-08-03T13:31:04;2.97;;;0.70;;
25938;SDS011;13739;51.172;4.466;2022-08-03T13:33:33;1.75;;;0.70;;
25938;SDS011;13739;51.172;4.466;2022-08-03T13:35:59;2.80;;;0.75;;
25938;SDS011;13739;51.172;4.466;2022-08-03T13:38:25;1.73;;;0.60;;
25938;SDS011;13739;51.172;4.466;2022-08-03T13:40:53;4.13;;;1.00;;
25938;SDS011;13739;51.172;4.466;2022-08-03T13:43:19;1.80;;;0.95;;
25938;SDS011;13739;51.172;4.466;2022-08-03T13:45:46;4.28;;;0.90;;
25938;SDS011;13739;51.172;4.466;2022-08-03T13:48:11;1.60;;;0.80;;
25938;SDS011;13739;51.172;4.466;2022-08-03T13:50:37;2.25;;;0.65;;
25938;SDS011;13739;51.172;4.466;2022-08-03T13:53:03;3.47;;;0.70;;
25938;SDS011;13739;51.172;4.466;2022-08-03T13:55:29;1.27;;;0.70;;
25938;SDS011;13739;51.172;4.466;2022-08-03T13:57:54;2.15;;;0.68;;
25938;SDS011;13739;51.172;4.466;2022-08-03T14:00:20;1.92;;;0.60;;
25938;SDS011;13739;51.172;4.466;2022-08-03T14:02:49;1.40;;;0.50;;
25938;SDS011;13739;51.172;4.466;2022-08-03T14:05:15;3.42;;;0.70;;
25938;SDS011;13739;51.172;4.466;2022-08-03T14:07:41;3.42;;;0.70;;
25938;SDS011;13739;51.172;4.466;2022-08-03T14:10:07;2.35;;;0.82;;
25938;SDS011;13739;51.172;4.466;2022-08-03T14:12:33;2.88;;;0.70;;
25938;SDS011;13739;51.172;4.466;2022-08-03T14:14:59;2.58;;;0.70;;
25938;SDS011;13739;51.172;4.466;2022-08-03T14:17:24;2.40;;;0.75;;
25938;SDS011;13739;51.172;4.466;2022-08-03T14:19:50;2.10;;;0.52;;
25938;SDS011;13739;51.172;4.466;2022-08-03T14:22:16;1.90;;;0.68;;
25938;SDS011;13739;51.172;4.466;2022-08-03T14:24:41;3.20;;;0.77;;
25938;SDS011;13739;51.172;4.466;2022-08-03T14:27:07;1.73;;;0.80;;
25938;SDS011;13739;51.172;4.466;2022-08-03T14:29:32;2.05;;;0.70;;
25938;SDS011;13739;51.172;4.466;2022-08-03T14:31:58;1.23;;;0.63;;
25938;SDS011;13739;51.172;4.466;2022-08-03T14:34:24;1.08;;;0.50;;
25938;SDS011;13739;51.172;4.466;2022-08-03T14:36:49;0.77;;;0.47;;
25938;SDS011;13739;51.172;4.466;2022-08-03T14:39:15;1.20;;;0.75;;
25938;SDS011;13739;51.172;4.466;2022-08-03T14:41:40;0.93;;;0.60;;
25938;SDS011;13739;51.172;4.466;2022-08-03T14:44:06;1.80;;;0.65;;
25938;SDS011;13739;51.172;4.466;2022-08-03T14:46:32;2.78;;;0.60;;
25938;SDS011;13739;51.172;4.466;2022-08-03T14:48:58;1.92;;;0.77;;
25938;SDS011;13739;51.172;4.466;2022-08-03T14:51:23;4.25;;;0.70;;
25938;SDS011;13739;51.172;4.466;2022-08-03T14:53:49;1.23;;;0.60;;
25938;SDS011;13739;51.172;4.466;2022-08-03T14:56:14;3.13;;;0.70;;
25938;SDS011;13739;51.172;4.466;2022-08-03T14:58:40;0.77;;;0.57;;
25938;SDS011;13739;51.172;4.466;2022-08-03T15:01:06;3.38;;;0.63;;
25938;SDS011;13739;51.172;4.466;2022-08-03T15:03:32;1.95;;;0.60;;
25938;SDS011;13739;51.172;4.466;2022-08-03T15:05:57;1.80;;;0.60;;
25938;SDS011;13739;51.172;4.466;2022-08-03T15:08:23;3.55;;;0.70;;
25938;SDS011;13739;51.172;4.466;2022-08-03T15:10:50;2.53;;;0.60;;
25938;SDS011;13739;51.172;4.466;2022-08-03T15:13:17;2.97;;;0.70;;
25938;SDS011;13739;51.172;4.466;2022-08-03T15:15:44;0.95;;;0.60;;
25938;SDS011;13739;51.172;4.466;2022-08-03T15:18:10;1.17;;;0.68;;
25938;SDS011;13739;51.172;4.466;2022-08-03T15:20:35;4.82;;;1.00;;
25938;SDS011;13739;51.172;4.466;2022-08-03T15:23:01;1.98;;;0.60;;
25938;SDS011;13739;51.172;4.466;2022-08-03T15:25:27;2.30;;;0.65;;
25938;SDS011;13739;51.172;4.466;2022-08-03T15:27:52;1.52;;;0.60;;
25938;SDS011;13739;51.172;4.466;2022-08-03T15:30:18;1.67;;;0.80;;
25938;SDS011;13739;51.172;4.466;2022-08-03T15:32:44;2.80;;;0.65;;
25938;SDS011;13739;51.172;4.466;2022-08-03T15:35:09;6.13;;;1.08;;
25938;SDS011;13739;51.172;4.466;2022-08-03T15:37:35;1.45;;;0.82;;
25938;SDS011;13739;51.172;4.466;2022-08-03T15:40:00;1.55;;;0.60;;
25938;SDS011;13739;51.172;4.466;2022-08-03T15:42:29;0.98;;;0.45;;
25938;SDS011;13739;51.172;4.466;2022-08-03T15:44:57;1.67;;;0.60;;
25938;SDS011;13739;51.172;4.466;2022-08-03T15:47:23;3.08;;;0.43;;
25938;SDS011;13739;51.172;4.466;2022-08-03T15:49:49;0.98;;;0.40;;